sensor_id;sensor_type;location;lat;lon;timestamp;P1;durP1;ratioP1;P2;durP2;ratioP2
29712;SDS011;16623;53.632;10.016;2023-04-15T00:02:19;9.30;;;6.00;;
29712;SDS011;16623;53.632;10.016;2023-04-15T00:04:45;10.32;;;6.55;;
29712;SDS011;16623;53.632;10.016;2023-04-15T00:07:10;8.82;;;6.45;;
29712;SDS011;16623;53.632;10.016;2023-04-15T00:09:36;10.50;;;6.72;;
29712;SDS011;16623;53.632;10.016;2023-04-15T00:12:02;8.82;;;5.75;;
29712;SDS011;16623;53.632;10.016;2023-04-15T00:14:27;9.43;;;6.75;;
29712;SDS011;16623;53.632;10.016;2023-04-15T00:16:53;9.68;;;5.93;;
29712;SDS011;16623;53.632;10.016;2023-04-15T00:19:21;9.40;;;5.85;;
29712;SDS011;16623;53.632;10.016;2023-04-15T00:21:47;7.93;;;5.95;;
29712;SDS011;16623;53.632;10.016;2023-04-15T00:24:13;9.88;;;5.90;;
29712;SDS011;16623;53.632;10.016;2023-04-15T00:26:38;9.15;;;6.28;;
29712;SDS011;16623;53.632;10.016;2023-04-15T00:29:04;10.10;;;6.30;;
29712;SDS011;16623;53.632;10.016;2023-04-15T00:31:30;8.50;;;6.45;;
29712;SDS011;16623;53.632;10.016;2023-04-15T00:33:56;9.75;;;6.03;;
29712;SDS011;16623;53.632;10.016;2023-04-15T00:36:22;9.75;;;6.00;;
29712;SDS011;16623;53.632;10.016;2023-04-15T00:38:48;11.05;;;6.60;;
29712;SDS011;16623;53.632;10.016;2023-04-15T00:41:13;9.82;;;6.75;;
29712;SDS011;16623;53.632;10.016;2023-04-15T00:43:39;11.07;;;6.95;;
29712;SDS011;16623;53.632;10.016;2023-04-15T00:46:05;13.65;;;6.85;;
29712;SDS011;16623;53.632;10.016;2023-04-15T00:48:31;11.55;;;7.30;;
29712;SDS011;16623;53.632;10.016;2023-04-15T00:50:57;10.38;;;6.65;;
29712;SDS011;16623;53.632;10.016;2023-04-15T00:53:23;9.93;;;6.60;;
29712;SDS011;16623;53.632;10.016;2023-04-15T00:55:48;8.68;;;6.70;;
29712;SDS011;16623;53.632;10.016;2023-04-15T00:58:15;11.10;;;6.97;;
29712;SDS011;16623;53.632;10.016;2023-04-15T01:00:41;10.38;;;7.05;;
29712;SDS011;16623;53.632;10.016;2023-04-15T01:03:07;12.88;;;7.85;;
29712;SDS011;16623;53.632;10.016;2023-04-15T01:05:33;9.70;;;7.00;;
29712;SDS011;16623;53.632;10.016;2023-04-15T01:08:00;11.38;;;7.40;;
29712;SDS011;16623;53.632;10.016;2023-04-15T01:10:26;12.20;;;7.95;;
29712;SDS011;16623;53.632;10.016;2023-04-15T01:12:52;10.35;;;7.60;;
29712;SDS011;16623;53.632;10.016;2023-04-15T01:15:18;14.23;;;7.70;;
29712;SDS011;16623;53.632;10.016;2023-04-15T01:17:44;12.80;;;8.15;;
29712;SDS011;16623;53.632;10.016;2023-04-15T01:20:10;14.05;;;10.00;;
29712;SDS011;16623;53.632;10.016;2023-04-15T01:22:36;11.35;;;7.30;;
29712;SDS011;16623;53.632;10.016;2023-04-15T01:25:12;12.10;;;8.68;;
29712;SDS011;16623;53.632;10.016;2023-04-15T01:27:42;11.98;;;8.23;;
29712;SDS011;16623;53.632;10.016;2023-04-15T01:30:08;11.77;;;8.57;;
29712;SDS011;16623;53.632;10.016;2023-04-15T01:32:34;13.68;;;8.02;;
29712;SDS011;16623;53.632;10.016;2023-04-15T01:35:00;13.10;;;8.23;;
29712;SDS011;16623;53.632;10.016;2023-04-15T01:37:26;13.27;;;8.23;;
29712;SDS011;16623;53.632;10.016;2023-04-15T01:39:52;16.40;;;8.95;;
29712;SDS011;16623;53.632;10.016;2023-04-15T01:42:17;12.10;;;7.50;;
29712;SDS011;16623;53.632;10.016;2023-04-15T01:44:43;14.48;;;9.25;;
29712;SDS011;16623;53.632;10.016;2023-04-15T01:47:08;14.90;;;8.68;;
29712;SDS011;16623;53.632;10.016;2023-04-15T01:49:34;14.30;;;9.48;;
29712;SDS011;16623;53.632;10.016;2023-04-15T01:52:00;14.57;;;9.07;;
29712;SDS011;16623;53.632;10.016;2023-04-15T01:54:25;17.98;;;9.07;;
29712;SDS011;16623;53.632;10.016;2023-04-15T01:56:52;15.32;;;9.57;;
29712;SDS011;16623;53.632;10.016;2023-04-15T01:59:17;14.48;;;9.20;;
29712;SDS011;16623;53.632;10.016;2023-04-15T02:01:43;16.95;;;9.85;;
29712;SDS011;16623;53.632;10.016;2023-04-15T02:04:09;16.75;;;9.82;;
29712;SDS011;16623;53.632;10.016;2023-04-15T02:06:40;16.35;;;9.68;;
29712;SDS011;16623;53.632;10.016;2023-04-15T02:09:09;18.17;;;10.95;;
29712;SDS011;16623;53.632;10.016;2023-04-15T02:11:35;16.88;;;10.38;;
29712;SDS011;16623;53.632;10.016;2023-04-15T02:14:02;19.67;;;11.13;;
29712;SDS011;16623;53.632;10.016;2023-04-15T02:16:29;20.42;;;11.70;;
29712;SDS011;16623;53.632;10.016;2023-04-15T02:18:55;19.42;;;11.70;;
29712;SDS011;16623;53.632;10.016;2023-04-15T02:21:21;22.90;;;12.57;;
29712;SDS011;16623;53.632;10.016;2023-04-15T02:23:46;19.83;;;12.10;;
29712;SDS011;16623;53.632;10.016;2023-04-15T02:26:12;24.20;;;13.30;;
29712;SDS011;16623;53.632;10.016;2023-04-15T02:28:38;23.20;;;12.18;;
29712;SDS011;16623;53.632;10.016;2023-04-15T02:31:05;26.17;;;13.57;;
29712;SDS011;16623;53.632;10.016;2023-04-15T02:33:31;24.52;;;13.75;;
29712;SDS011;16623;53.632;10.016;2023-04-15T02:35:56;25.35;;;13.15;;
29712;SDS011;16623;53.632;10.016;2023-04-15T02:38:23;26.10;;;14.63;;
29712;SDS011;16623;53.632;10.016;2023-04-15T02:40:48;24.38;;;13.98;;
29712;SDS011;16623;53.632;10.016;2023-04-15T02:43:14;26.58;;;15.23;;
29712;SDS011;16623;53.632;10.016;2023-04-15T02:45:41;27.58;;;15.10;;
29712;SDS011;16623;53.632;10.016;2023-04-15T02:48:07;27.77;;;14.73;;
29712;SDS011;16623;53.632;10.016;2023-04-15T02:50:33;27.98;;;15.75;;
29712;SDS011;16623;53.632;10.016;2023-04-15T02:52:59;22.83;;;14.55;;
29712;SDS011;16623;53.632;10.016;2023-04-15T02:55:27;26.65;;;14.27;;
29712;SDS011;16623;53.632;10.016;2023-04-15T02:57:53;28.50;;;16.05;;
29712;SDS011;16623;53.632;10.016;2023-04-15T03:00:18;28.20;;;15.15;;
29712;SDS011;16623;53.632;10.016;2023-04-15T03:02:44;28.08;;;15.98;;
29712;SDS011;16623;53.632;10.016;2023-04-15T03:05:11;33.03;;;15.52;;
29712;SDS011;16623;53.632;10.016;2023-04-15T03:07:38;26.92;;;14.27;;
29712;SDS011;16623;53.632;10.016;2023-04-15T03:10:05;33.20;;;16.38;;
29712;SDS011;16623;53.632;10.016;2023-04-15T03:12:31;31.48;;;14.02;;
29712;SDS011;16623;53.632;10.016;2023-04-15T03:14:57;29.15;;;15.35;;
29712;SDS011;16623;53.632;10.016;2023-04-15T03:17:22;30.55;;;15.68;;
29712;SDS011;16623;53.632;10.016;2023-04-15T03:19:48;36.58;;;16.55;;
29712;SDS011;16623;53.632;10.016;2023-04-15T03:22:13;30.45;;;15.38;;
29712;SDS011;16623;53.632;10.016;2023-04-15T03:24:39;38.15;;;15.85;;
29712;SDS011;16623;53.632;10.016;2023-04-15T03:27:04;33.83;;;16.13;;
29712;SDS011;16623;53.632;10.016;2023-04-15T03:29:32;27.58;;;15.23;;
29712;SDS011;16623;53.632;10.016;2023-04-15T03:31:57;31.05;;;15.02;;
29712;SDS011;16623;53.632;10.016;2023-04-15T03:34:23;33.20;;;16.90;;
29712;SDS011;16623;53.632;10.016;2023-04-15T03:36:48;39.10;;;17.65;;
29712;SDS011;16623;53.632;10.016;2023-04-15T03:39:16;35.72;;;17.52;;
29712;SDS011;16623;53.632;10.016;2023-04-15T03:41:41;39.22;;;17.92;;
29712;SDS011;16623;53.632;10.016;2023-04-15T03:44:06;39.67;;;18.23;;
29712;SDS011;16623;53.632;10.016;2023-04-15T03:46:32;41.60;;;19.65;;
29712;SDS011;16623;53.632;10.016;2023-04-15T03:48:57;37.85;;;17.55;;
29712;SDS011;16623;53.632;10.016;2023-04-15T03:51:23;38.35;;;18.30;;
29712;SDS011;16623;53.632;10.016;2023-04-15T03:53:49;36.50;;;18.15;;
29712;SDS011;16623;53.632;10.016;2023-04-15T03:56:15;36.60;;;18.92;;
29712;SDS011;16623;53.632;10.016;2023-04-15T03:58:41;43.67;;;20.50;;
29712;SDS011;16623;53.632;10.016;2023-04-15T04:01:06;43.13;;;19.92;;
29712;SDS011;16623;53.632;10.016;2023-04-15T04:03:32;41.83;;;18.95;;
29712;SDS011;16623;53.632;10.016;2023-04-15T04:05:58;39.00;;;19.27;;
29712;SDS011;16623;53.632;10.016;2023-04-15T04:08:23;43.70;;;19.75;;
29712;SDS011;16623;53.632;10.016;2023-04-15T04:10:49;41.70;;;21.00;;
29712;SDS011;16623;53.632;10.016;2023-04-15T04:13:15;42.75;;;19.40;;
29712;SDS011;16623;53.632;10.016;2023-04-15T04:15:41;45.33;;;20.98;;
29712;SDS011;16623;53.632;10.016;2023-04-15T04:18:06;42.58;;;20.83;;
29712;SDS011;16623;53.632;10.016;2023-04-15T04:20:32;47.75;;;22.00;;
29712;SDS011;16623;53.632;10.016;2023-04-15T04:22:58;46.22;;;21.13;;
29712;SDS011;16623;53.632;10.016;2023-04-15T04:25:24;48.90;;;22.10;;
29712;SDS011;16623;53.632;10.016;2023-04-15T04:27:49;41.45;;;20.75;;
29712;SDS011;16623;53.632;10.016;2023-04-15T04:30:15;49.45;;;22.75;;
29712;SDS011;16623;53.632;10.016;2023-04-15T04:32:41;49.22;;;22.35;;
29712;SDS011;16623;53.632;10.016;2023-04-15T04:35:06;48.72;;;21.67;;
29712;SDS011;16623;53.632;10.016;2023-04-15T04:37:33;48.63;;;23.70;;
29712;SDS011;16623;53.632;10.016;2023-04-15T04:39:58;58.03;;;26.73;;
29712;SDS011;16623;53.632;10.016;2023-04-15T04:42:24;61.63;;;27.13;;
29712;SDS011;16623;53.632;10.016;2023-04-15T04:44:49;60.75;;;26.05;;
29712;SDS011;16623;53.632;10.016;2023-04-15T04:47:15;67.20;;;27.40;;
29712;SDS011;16623;53.632;10.016;2023-04-15T04:49:41;68.55;;;28.90;;
29712;SDS011;16623;53.632;10.016;2023-04-15T04:52:06;69.03;;;28.77;;
29712;SDS011;16623;53.632;10.016;2023-04-15T04:54:32;71.32;;;29.17;;
29712;SDS011;16623;53.632;10.016;2023-04-15T04:56:57;69.22;;;30.75;;
29712;SDS011;16623;53.632;10.016;2023-04-15T04:59:23;85.63;;;32.13;;
29712;SDS011;16623;53.632;10.016;2023-04-15T05:01:49;73.05;;;30.20;;
29712;SDS011;16623;53.632;10.016;2023-04-15T05:04:15;75.20;;;31.38;;
29712;SDS011;16623;53.632;10.016;2023-04-15T05:06:40;71.47;;;30.85;;
29712;SDS011;16623;53.632;10.016;2023-04-15T05:09:06;81.13;;;32.53;;
29712;SDS011;16623;53.632;10.016;2023-04-15T05:11:32;75.63;;;31.63;;
29712;SDS011;16623;53.632;10.016;2023-04-15T05:13:57;74.30;;;30.77;;
29712;SDS011;16623;53.632;10.016;2023-04-15T05:16:25;78.00;;;33.15;;
29712;SDS011;16623;53.632;10.016;2023-04-15T05:18:51;90.53;;;36.47;;
29712;SDS011;16623;53.632;10.016;2023-04-15T05:21:16;76.65;;;33.50;;
29712;SDS011;16623;53.632;10.016;2023-04-15T05:23:42;87.53;;;35.85;;
29712;SDS011;16623;53.632;10.016;2023-04-15T05:26:07;77.18;;;32.72;;
29712;SDS011;16623;53.632;10.016;2023-04-15T05:28:33;75.93;;;34.00;;
29712;SDS011;16623;53.632;10.016;2023-04-15T05:30:58;85.80;;;37.17;;
29712;SDS011;16623;53.632;10.016;2023-04-15T05:33:24;85.07;;;37.03;;
29712;SDS011;16623;53.632;10.016;2023-04-15T05:35:50;82.47;;;34.50;;
29712;SDS011;16623;53.632;10.016;2023-04-15T05:38:16;87.93;;;35.90;;
29712;SDS011;16623;53.632;10.016;2023-04-15T05:40:41;86.75;;;35.45;;
29712;SDS011;16623;53.632;10.016;2023-04-15T05:43:07;82.60;;;35.95;;
29712;SDS011;16623;53.632;10.016;2023-04-15T05:45:32;89.88;;;35.67;;
29712;SDS011;16623;53.632;10.016;2023-04-15T05:47:58;81.18;;;35.30;;
29712;SDS011;16623;53.632;10.016;2023-04-15T05:50:23;79.88;;;35.35;;
29712;SDS011;16623;53.632;10.016;2023-04-15T05:52:49;69.65;;;32.47;;
29712;SDS011;16623;53.632;10.016;2023-04-15T05:55:14;79.88;;;35.80;;
29712;SDS011;16623;53.632;10.016;2023-04-15T05:57:40;76.90;;;35.92;;
29712;SDS011;16623;53.632;10.016;2023-04-15T06:00:06;75.40;;;35.95;;
29712;SDS011;16623;53.632;10.016;2023-04-15T06:02:32;79.18;;;35.65;;
29712;SDS011;16623;53.632;10.016;2023-04-15T06:04:58;78.70;;;33.63;;
29712;SDS011;16623;53.632;10.016;2023-04-15T06:07:24;72.95;;;34.90;;
29712;SDS011;16623;53.632;10.016;2023-04-15T06:09:50;78.25;;;34.85;;
29712;SDS011;16623;53.632;10.016;2023-04-15T06:12:16;74.80;;;32.42;;
29712;SDS011;16623;53.632;10.016;2023-04-15T06:14:41;81.13;;;37.63;;
29712;SDS011;16623;53.632;10.016;2023-04-15T06:17:07;86.90;;;37.55;;
29712;SDS011;16623;53.632;10.016;2023-04-15T06:19:33;84.93;;;38.03;;
29712;SDS011;16623;53.632;10.016;2023-04-15T06:22:00;82.95;;;39.05;;
29712;SDS011;16623;53.632;10.016;2023-04-15T06:24:26;91.90;;;40.83;;
29712;SDS011;16623;53.632;10.016;2023-04-15T06:26:52;91.90;;;41.05;;
29712;SDS011;16623;53.632;10.016;2023-04-15T06:29:18;90.90;;;40.53;;
29712;SDS011;16623;53.632;10.016;2023-04-15T06:31:48;92.47;;;43.13;;
29712;SDS011;16623;53.632;10.016;2023-04-15T06:34:13;96.18;;;43.78;;
29712;SDS011;16623;53.632;10.016;2023-04-15T06:36:39;106.47;;;43.05;;
29712;SDS011;16623;53.632;10.016;2023-04-15T06:39:05;96.68;;;42.03;;
29712;SDS011;16623;53.632;10.016;2023-04-15T06:41:30;104.75;;;45.83;;
29712;SDS011;16623;53.632;10.016;2023-04-15T06:43:56;108.82;;;44.58;;
29712;SDS011;16623;53.632;10.016;2023-04-15T06:46:21;100.35;;;46.42;;
29712;SDS011;16623;53.632;10.016;2023-04-15T06:48:47;99.82;;;45.58;;
29712;SDS011;16623;53.632;10.016;2023-04-15T06:51:12;108.95;;;47.90;;
29712;SDS011;16623;53.632;10.016;2023-04-15T06:53:38;101.45;;;47.83;;
29712;SDS011;16623;53.632;10.016;2023-04-15T06:56:07;107.97;;;47.67;;
29712;SDS011;16623;53.632;10.016;2023-04-15T06:58:33;108.28;;;46.38;;
29712;SDS011;16623;53.632;10.016;2023-04-15T07:00:59;100.22;;;49.78;;
29712;SDS011;16623;53.632;10.016;2023-04-15T07:03:25;95.82;;;45.90;;
29712;SDS011;16623;53.632;10.016;2023-04-15T07:05:51;100.43;;;45.85;;
29712;SDS011;16623;53.632;10.016;2023-04-15T07:08:16;106.85;;;49.92;;
29712;SDS011;16623;53.632;10.016;2023-04-15T07:10:43;102.00;;;45.67;;
29712;SDS011;16623;53.632;10.016;2023-04-15T07:13:08;100.80;;;47.20;;
29712;SDS011;16623;53.632;10.016;2023-04-15T07:15:34;105.03;;;46.58;;
29712;SDS011;16623;53.632;10.016;2023-04-15T07:17:59;99.07;;;47.20;;
29712;SDS011;16623;53.632;10.016;2023-04-15T07:20:25;95.35;;;44.40;;
29712;SDS011;16623;53.632;10.016;2023-04-15T07:22:51;96.88;;;48.60;;
29712;SDS011;16623;53.632;10.016;2023-04-15T07:25:18;93.07;;;47.33;;
29712;SDS011;16623;53.632;10.016;2023-04-15T07:27:44;105.82;;;50.08;;
29712;SDS011;16623;53.632;10.016;2023-04-15T07:30:10;102.60;;;48.13;;
29712;SDS011;16623;53.632;10.016;2023-04-15T07:32:36;92.25;;;48.15;;
29712;SDS011;16623;53.632;10.016;2023-04-15T07:35:02;99.57;;;47.17;;
29712;SDS011;16623;53.632;10.016;2023-04-15T07:37:28;92.60;;;45.28;;
29712;SDS011;16623;53.632;10.016;2023-04-15T07:39:54;100.28;;;46.22;;
29712;SDS011;16623;53.632;10.016;2023-04-15T07:42:20;101.03;;;46.97;;
29712;SDS011;16623;53.632;10.016;2023-04-15T07:44:46;101.63;;;45.83;;
29712;SDS011;16623;53.632;10.016;2023-04-15T07:47:12;95.65;;;45.63;;
29712;SDS011;16623;53.632;10.016;2023-04-15T07:49:37;101.80;;;48.00;;
29712;SDS011;16623;53.632;10.016;2023-04-15T07:52:03;103.20;;;48.33;;
29712;SDS011;16623;53.632;10.016;2023-04-15T07:54:28;96.53;;;46.05;;
29712;SDS011;16623;53.632;10.016;2023-04-15T07:56:54;103.25;;;48.20;;
29712;SDS011;16623;53.632;10.016;2023-04-15T07:59:20;95.65;;;42.97;;
29712;SDS011;16623;53.632;10.016;2023-04-15T08:01:46;93.10;;;45.83;;
29712;SDS011;16623;53.632;10.016;2023-04-15T08:04:12;108.18;;;48.53;;
29712;SDS011;16623;53.632;10.016;2023-04-15T08:06:37;109.95;;;47.42;;
29712;SDS011;16623;53.632;10.016;2023-04-15T08:09:03;99.43;;;46.83;;
29712;SDS011;16623;53.632;10.016;2023-04-15T08:11:33;102.18;;;48.63;;
29712;SDS011;16623;53.632;10.016;2023-04-15T08:14:01;92.15;;;42.83;;
29712;SDS011;16623;53.632;10.016;2023-04-15T08:16:27;93.65;;;45.20;;
29712;SDS011;16623;53.632;10.016;2023-04-15T08:18:54;94.35;;;47.67;;
29712;SDS011;16623;53.632;10.016;2023-04-15T08:21:20;95.75;;;43.03;;
29712;SDS011;16623;53.632;10.016;2023-04-15T08:23:47;85.57;;;45.63;;
29712;SDS011;16623;53.632;10.016;2023-04-15T08:26:14;92.65;;;47.30;;
29712;SDS011;16623;53.632;10.016;2023-04-15T08:28:40;79.93;;;45.38;;
29712;SDS011;16623;53.632;10.016;2023-04-15T08:31:06;93.30;;;44.75;;
29712;SDS011;16623;53.632;10.016;2023-04-15T08:33:33;96.57;;;45.40;;
29712;SDS011;16623;53.632;10.016;2023-04-15T08:35:59;71.95;;;34.95;;
29712;SDS011;16623;53.632;10.016;2023-04-15T08:38:24;72.63;;;38.15;;
29712;SDS011;16623;53.632;10.016;2023-04-15T08:40:50;87.43;;;43.70;;
29712;SDS011;16623;53.632;10.016;2023-04-15T08:45:52;86.22;;;41.75;;
29712;SDS011;16623;53.632;10.016;2023-04-15T08:48:21;87.45;;;43.08;;
29712;SDS011;16623;53.632;10.016;2023-04-15T08:50:48;91.72;;;42.75;;
29712;SDS011;16623;53.632;10.016;2023-04-15T08:53:15;86.43;;;43.45;;
29712;SDS011;16623;53.632;10.016;2023-04-15T08:55:43;91.75;;;47.42;;
29712;SDS011;16623;53.632;10.016;2023-04-15T08:58:09;78.65;;;41.75;;
29712;SDS011;16623;53.632;10.016;2023-04-15T09:00:36;77.18;;;42.72;;
29712;SDS011;16623;53.632;10.016;2023-04-15T09:03:05;88.60;;;43.58;;
29712;SDS011;16623;53.632;10.016;2023-04-15T09:05:32;82.30;;;38.50;;
29712;SDS011;16623;53.632;10.016;2023-04-15T09:07:58;81.85;;;43.38;;
29712;SDS011;16623;53.632;10.016;2023-04-15T09:10:24;84.00;;;42.50;;
29712;SDS011;16623;53.632;10.016;2023-04-15T09:12:49;87.90;;;42.95;;
29712;SDS011;16623;53.632;10.016;2023-04-15T09:15:15;87.97;;;40.92;;
29712;SDS011;16623;53.632;10.016;2023-04-15T09:17:42;85.40;;;41.85;;
29712;SDS011;16623;53.632;10.016;2023-04-15T09:20:08;76.80;;;40.55;;
29712;SDS011;16623;53.632;10.016;2023-04-15T09:22:35;80.65;;;44.05;;
29712;SDS011;16623;53.632;10.016;2023-04-15T09:25:11;82.10;;;40.17;;
29712;SDS011;16623;53.632;10.016;2023-04-15T09:27:52;74.85;;;37.42;;
29712;SDS011;16623;53.632;10.016;2023-04-15T09:30:22;80.63;;;41.53;;
29712;SDS011;16623;53.632;10.016;2023-04-15T09:33:06;73.10;;;38.85;;
29712;SDS011;16623;53.632;10.016;2023-04-15T09:35:32;73.00;;;39.00;;
29712;SDS011;16623;53.632;10.016;2023-04-15T09:38:04;64.47;;;38.15;;
29712;SDS011;16623;53.632;10.016;2023-04-15T09:40:39;62.88;;;36.90;;
29712;SDS011;16623;53.632;10.016;2023-04-15T09:43:06;57.28;;;35.25;;
29712;SDS011;16623;53.632;10.016;2023-04-15T09:45:33;68.82;;;37.33;;
29712;SDS011;16623;53.632;10.016;2023-04-15T09:50:50;53.55;;;31.20;;
29712;SDS011;16623;53.632;10.016;2023-04-15T09:53:21;53.45;;;30.70;;
29712;SDS011;16623;53.632;10.016;2023-04-15T09:55:51;55.17;;;33.20;;
29712;SDS011;16623;53.632;10.016;2023-04-15T09:58:21;53.80;;;31.67;;
29712;SDS011;16623;53.632;10.016;2023-04-15T10:00:54;63.90;;;34.08;;
29712;SDS011;16623;53.632;10.016;2023-04-15T10:03:24;59.63;;;33.17;;
29712;SDS011;16623;53.632;10.016;2023-04-15T10:05:52;51.83;;;32.80;;
29712;SDS011;16623;53.632;10.016;2023-04-15T10:08:20;51.65;;;29.27;;
29712;SDS011;16623;53.632;10.016;2023-04-15T10:10:50;51.65;;;30.58;;
29712;SDS011;16623;53.632;10.016;2023-04-15T10:13:20;47.03;;;27.83;;
29712;SDS011;16623;53.632;10.016;2023-04-15T10:15:53;46.47;;;29.20;;
29712;SDS011;16623;53.632;10.016;2023-04-15T10:18:22;54.55;;;29.17;;
29712;SDS011;16623;53.632;10.016;2023-04-15T10:20:51;52.92;;;27.30;;
29712;SDS011;16623;53.632;10.016;2023-04-15T10:23:17;40.72;;;26.55;;
29712;SDS011;16623;53.632;10.016;2023-04-15T10:25:44;43.58;;;24.55;;
29712;SDS011;16623;53.632;10.016;2023-04-15T10:28:11;38.42;;;26.10;;
29712;SDS011;16623;53.632;10.016;2023-04-15T10:30:37;35.03;;;22.33;;
29712;SDS011;16623;53.632;10.016;2023-04-15T10:33:03;37.97;;;25.77;;
29712;SDS011;16623;53.632;10.016;2023-04-15T10:35:30;34.17;;;24.23;;
29712;SDS011;16623;53.632;10.016;2023-04-15T10:37:58;42.78;;;25.98;;
29712;SDS011;16623;53.632;10.016;2023-04-15T10:40:27;33.95;;;23.25;;
29712;SDS011;16623;53.632;10.016;2023-04-15T10:42:56;31.20;;;20.15;;
29712;SDS011;16623;53.632;10.016;2023-04-15T10:45:26;31.58;;;19.65;;
29712;SDS011;16623;53.632;10.016;2023-04-15T10:47:57;27.25;;;17.80;;
29712;SDS011;16623;53.632;10.016;2023-04-15T10:50:25;31.88;;;19.10;;
29712;SDS011;16623;53.632;10.016;2023-04-15T10:52:52;28.95;;;17.73;;
29712;SDS011;16623;53.632;10.016;2023-04-15T10:55:23;22.08;;;13.40;;
29712;SDS011;16623;53.632;10.016;2023-04-15T10:57:51;23.10;;;14.52;;
29712;SDS011;16623;53.632;10.016;2023-04-15T11:00:19;21.58;;;15.07;;
29712;SDS011;16623;53.632;10.016;2023-04-15T11:05:18;20.33;;;14.18;;
29712;SDS011;16623;53.632;10.016;2023-04-15T11:12:46;21.13;;;14.30;;
29712;SDS011;16623;53.632;10.016;2023-04-15T11:15:26;24.00;;;13.90;;
29712;SDS011;16623;53.632;10.016;2023-04-15T11:17:56;20.35;;;14.13;;
29712;SDS011;16623;53.632;10.016;2023-04-15T11:20:22;19.13;;;13.27;;
29712;SDS011;16623;53.632;10.016;2023-04-15T11:22:49;17.63;;;11.18;;
29712;SDS011;16623;53.632;10.016;2023-04-15T11:25:22;17.55;;;10.88;;
29712;SDS011;16623;53.632;10.016;2023-04-15T11:27:55;16.80;;;11.23;;
29712;SDS011;16623;53.632;10.016;2023-04-15T11:30:22;16.30;;;10.38;;
29712;SDS011;16623;53.632;10.016;2023-04-15T11:32:53;11.95;;;8.30;;
29712;SDS011;16623;53.632;10.016;2023-04-15T11:35:23;16.93;;;10.07;;
29712;SDS011;16623;53.632;10.016;2023-04-15T11:37:49;17.02;;;10.27;;
29712;SDS011;16623;53.632;10.016;2023-04-15T11:40:21;11.63;;;7.50;;
29712;SDS011;16623;53.632;10.016;2023-04-15T11:45:33;17.50;;;10.57;;
29712;SDS011;16623;53.632;10.016;2023-04-15T11:48:09;15.52;;;10.65;;
29712;SDS011;16623;53.632;10.016;2023-04-15T11:50:36;14.02;;;9.15;;
29712;SDS011;16623;53.632;10.016;2023-04-15T11:53:05;18.05;;;11.88;;
29712;SDS011;16623;53.632;10.016;2023-04-15T11:55:45;16.27;;;9.48;;
29712;SDS011;16623;53.632;10.016;2023-04-15T11:58:16;14.27;;;10.95;;
29712;SDS011;16623;53.632;10.016;2023-04-15T12:00:46;13.05;;;8.60;;
29712;SDS011;16623;53.632;10.016;2023-04-15T12:06:23;15.38;;;10.93;;
29712;SDS011;16623;53.632;10.016;2023-04-15T12:08:47;17.60;;;11.35;;
29712;SDS011;16623;53.632;10.016;2023-04-15T12:11:40;17.50;;;11.23;;
29712;SDS011;16623;53.632;10.016;2023-04-15T12:17:05;13.40;;;7.75;;
29712;SDS011;16623;53.632;10.016;2023-04-15T12:22:02;13.93;;;10.93;;
29712;SDS011;16623;53.632;10.016;2023-04-15T12:24:39;22.35;;;11.32;;
29712;SDS011;16623;53.632;10.016;2023-04-15T12:27:09;15.73;;;8.77;;
29712;SDS011;16623;53.632;10.016;2023-04-15T12:29:37;16.92;;;10.95;;
29712;SDS011;16623;53.632;10.016;2023-04-15T12:32:04;16.50;;;11.07;;
29712;SDS011;16623;53.632;10.016;2023-04-15T12:37:10;15.82;;;12.32;;
29712;SDS011;16623;53.632;10.016;2023-04-15T12:39:38;22.05;;;10.73;;
29712;SDS011;16623;53.632;10.016;2023-04-15T12:42:08;19.05;;;10.45;;
29712;SDS011;16623;53.632;10.016;2023-04-15T12:44:36;18.42;;;11.73;;
29712;SDS011;16623;53.632;10.016;2023-04-15T12:47:06;15.85;;;11.55;;
29712;SDS011;16623;53.632;10.016;2023-04-15T12:49:35;14.85;;;9.50;;
29712;SDS011;16623;53.632;10.016;2023-04-15T12:52:01;13.27;;;8.63;;
29712;SDS011;16623;53.632;10.016;2023-04-15T12:54:28;15.73;;;11.20;;
29712;SDS011;16623;53.632;10.016;2023-04-15T12:56:54;14.38;;;10.13;;
29712;SDS011;16623;53.632;10.016;2023-04-15T12:59:21;17.20;;;11.70;;
29712;SDS011;16623;53.632;10.016;2023-04-15T13:01:48;19.88;;;11.13;;
29712;SDS011;16623;53.632;10.016;2023-04-15T13:04:14;16.33;;;10.48;;
29712;SDS011;16623;53.632;10.016;2023-04-15T13:06:40;15.55;;;11.60;;
29712;SDS011;16623;53.632;10.016;2023-04-15T13:09:05;14.95;;;11.57;;
29712;SDS011;16623;53.632;10.016;2023-04-15T13:11:31;15.43;;;10.00;;
29712;SDS011;16623;53.632;10.016;2023-04-15T13:13:58;10.45;;;7.65;;
29712;SDS011;16623;53.632;10.016;2023-04-15T13:16:31;12.98;;;9.63;;
29712;SDS011;16623;53.632;10.016;2023-04-15T13:18:58;14.00;;;7.85;;
29712;SDS011;16623;53.632;10.016;2023-04-15T13:21:24;12.82;;;9.48;;
29712;SDS011;16623;53.632;10.016;2023-04-15T13:23:51;15.77;;;11.32;;
29712;SDS011;16623;53.632;10.016;2023-04-15T13:26:17;13.20;;;9.18;;
29712;SDS011;16623;53.632;10.016;2023-04-15T13:28:43;8.82;;;6.68;;
29712;SDS011;16623;53.632;10.016;2023-04-15T13:31:09;12.85;;;8.77;;
29712;SDS011;16623;53.632;10.016;2023-04-15T13:33:35;17.75;;;10.95;;
29712;SDS011;16623;53.632;10.016;2023-04-15T13:36:00;14.70;;;10.13;;
29712;SDS011;16623;53.632;10.016;2023-04-15T13:38:26;17.88;;;10.32;;
29712;SDS011;16623;53.632;10.016;2023-04-15T13:40:51;15.43;;;9.95;;
29712;SDS011;16623;53.632;10.016;2023-04-15T13:43:17;13.70;;;9.45;;
29712;SDS011;16623;53.632;10.016;2023-04-15T13:45:42;13.70;;;9.73;;
29712;SDS011;16623;53.632;10.016;2023-04-15T13:48:08;13.38;;;9.00;;
29712;SDS011;16623;53.632;10.016;2023-04-15T13:50:34;10.48;;;7.13;;
29712;SDS011;16623;53.632;10.016;2023-04-15T13:53:00;15.30;;;8.10;;
29712;SDS011;16623;53.632;10.016;2023-04-15T13:55:25;13.27;;;8.43;;
29712;SDS011;16623;53.632;10.016;2023-04-15T13:57:51;14.52;;;8.20;;
29712;SDS011;16623;53.632;10.016;2023-04-15T14:00:16;12.05;;;8.07;;
29712;SDS011;16623;53.632;10.016;2023-04-15T14:02:46;15.80;;;8.23;;
29712;SDS011;16623;53.632;10.016;2023-04-15T14:05:12;11.73;;;7.57;;
29712;SDS011;16623;53.632;10.016;2023-04-15T14:07:38;11.60;;;8.85;;
29712;SDS011;16623;53.632;10.016;2023-04-15T14:10:03;10.95;;;7.20;;
29712;SDS011;16623;53.632;10.016;2023-04-15T14:12:29;13.18;;;8.57;;
29712;SDS011;16623;53.632;10.016;2023-04-15T14:14:55;12.20;;;8.68;;
29712;SDS011;16623;53.632;10.016;2023-04-15T14:17:20;14.63;;;9.90;;
29712;SDS011;16623;53.632;10.016;2023-04-15T14:19:46;11.95;;;8.73;;
29712;SDS011;16623;53.632;10.016;2023-04-15T14:22:11;16.25;;;9.68;;
29712;SDS011;16623;53.632;10.016;2023-04-15T14:24:37;15.57;;;9.98;;
29712;SDS011;16623;53.632;10.016;2023-04-15T14:27:03;13.63;;;9.27;;
29712;SDS011;16623;53.632;10.016;2023-04-15T14:29:28;14.05;;;9.90;;
29712;SDS011;16623;53.632;10.016;2023-04-15T14:31:55;14.20;;;9.02;;
29712;SDS011;16623;53.632;10.016;2023-04-15T14:34:22;10.70;;;7.32;;
29712;SDS011;16623;53.632;10.016;2023-04-15T14:36:49;11.82;;;8.27;;